createdAt,value
2019-03-11T00:01:22.209Z,99.90
2019-03-11T00:03:26.039Z,99.90
2019-03-11T00:05:30.850Z,99.90
2019-03-11T00:07:34.736Z,99.90
2019-03-11T00:09:38.532Z,99.90
2019-03-11T00:11:42.346Z,99.90
2019-03-11T00:13:46.146Z,99.90
2019-03-11T00:15:50.047Z,99.90
2019-03-11T00:17:53.855Z,99.90
2019-03-11T00:19:57.647Z,99.90
2019-03-11T00:22:02.390Z,99.90
2019-03-11T00:24:06.306Z,99.90
2019-03-11T00:26:10.174Z,99.90
2019-03-11T00:28:13.974Z,99.90
2019-03-11T00:30:17.846Z,99.90
2019-03-11T00:32:21.790Z,99.90
2019-03-11T00:34:25.563Z,99.90
2019-03-11T00:36:30.592Z,99.90
2019-03-11T00:38:34.771Z,99.90
2019-03-11T00:40:38.563Z,99.90
2019-03-11T00:42:42.466Z,99.90
2019-03-11T00:44:46.282Z,99.90
2019-03-11T00:46:50.091Z,99.90
2019-03-11T00:48:53.883Z,99.90
2019-03-11T00:50:57.755Z,99.90
2019-03-11T00:53:02.449Z,99.90
2019-03-11T00:55:07.058Z,99.90
2019-03-11T00:57:10.802Z,99.90
2019-03-11T00:59:14.627Z,99.90
2019-03-11T01:01:18.746Z,99.90
2019-03-11T01:03:22.567Z,99.90
2019-03-11T01:05:26.754Z,99.90
2019-03-11T01:07:40.071Z,99.90
2019-03-11T01:09:44.723Z,99.90
2019-03-11T01:11:48.635Z,99.90
2019-03-11T01:13:52.452Z,99.90
2019-03-11T01:15:56.220Z,99.90
2019-03-11T01:18:00.280Z,99.90
2019-03-11T01:20:05.895Z,99.90
2019-03-11T01:22:09.771Z,99.90
2019-03-11T01:24:33.159Z,99.90
2019-03-11T01:26:37.262Z,99.90
2019-03-11T01:28:41.019Z,99.90
2019-03-11T01:30:44.929Z,99.90
2019-03-11T01:32:48.731Z,99.90
2019-03-11T01:34:52.506Z,99.90
2019-03-11T01:36:56.311Z,99.90
2019-03-11T01:39:00.438Z,99.90
2019-03-11T01:41:04.786Z,99.90
2019-03-11T01:43:08.600Z,99.90
2019-03-11T01:45:14.908Z,99.90
2019-03-11T01:47:18.690Z,99.90
2019-03-11T01:49:23.996Z,99.90
2019-03-11T01:51:27.962Z,99.90
2019-03-11T01:53:32.504Z,99.90
2019-03-11T01:55:36.361Z,99.90
2019-03-11T01:57:40.161Z,99.90
2019-03-11T01:59:43.947Z,99.90
2019-03-11T02:01:48.623Z,99.90
2019-03-11T02:03:52.509Z,99.90
2019-03-11T02:05:56.359Z,99.90
2019-03-11T02:08:00.314Z,99.90
2019-03-11T02:10:06.179Z,99.90
2019-03-11T02:12:09.967Z,99.90
2019-03-11T02:14:13.748Z,99.90
2019-03-11T02:16:17.571Z,99.90
2019-03-11T02:18:21.393Z,99.90
2019-03-11T02:20:25.297Z,99.90
2019-03-11T02:22:29.094Z,99.90
2019-03-11T02:24:33.844Z,99.90
2019-03-11T02:26:37.679Z,99.90
2019-03-11T02:28:41.469Z,99.90
2019-03-11T02:30:45.394Z,99.90
2019-03-11T02:32:49.329Z,99.90
2019-03-11T02:34:53.527Z,99.90
2019-03-11T02:36:57.395Z,99.90
2019-03-11T02:39:01.932Z,99.90
2019-03-11T02:41:05.987Z,99.90
2019-03-11T02:43:09.846Z,99.90
2019-03-11T02:45:14.167Z,99.90
2019-03-11T02:47:17.976Z,99.90
2019-03-11T02:49:21.771Z,99.90
2019-03-11T02:51:25.559Z,99.90
2019-03-11T02:53:29.383Z,99.90
2019-03-11T02:55:34.664Z,99.90
2019-03-11T02:57:38.496Z,99.90
2019-03-11T02:59:42.371Z,99.90
2019-03-11T03:02:15.500Z,99.90
2019-03-11T03:04:26.103Z,99.90
2019-03-11T03:06:30.207Z,99.90
2019-03-11T03:08:34.680Z,99.90
2019-03-11T03:10:38.467Z,99.90
2019-03-11T03:12:42.357Z,99.90
2019-03-11T03:14:46.459Z,99.90
2019-03-11T03:16:50.362Z,99.90
2019-03-11T03:18:54.185Z,99.90
2019-03-11T03:20:57.971Z,99.90
2019-03-11T03:23:02.603Z,99.90
2019-03-11T03:25:07.260Z,99.90
2019-03-11T03:27:11.142Z,99.90
2019-03-11T03:29:15.327Z,99.90
2019-03-11T03:31:19.120Z,99.90
2019-03-11T03:33:22.903Z,99.90
2019-03-11T03:35:26.689Z,99.90
2019-03-11T03:37:30.505Z,99.90
2019-03-11T03:39:35.071Z,99.90
2019-03-11T03:41:38.929Z,99.90
2019-03-11T03:43:42.852Z,99.90
2019-03-11T03:45:46.977Z,99.90
2019-03-11T03:47:51.012Z,99.90
2019-03-11T03:49:55.033Z,99.90
2019-03-11T03:51:58.895Z,99.90
2019-03-11T03:54:03.520Z,99.90
2019-03-11T03:56:07.836Z,99.90
2019-03-11T03:58:11.614Z,99.90
2019-03-11T04:00:35.268Z,99.90
2019-03-11T04:02:39.336Z,99.90
2019-03-11T04:04:43.101Z,99.90
2019-03-11T04:06:46.852Z,99.90
2019-03-11T04:08:50.692Z,99.90
2019-03-11T04:10:54.557Z,99.90
2019-03-11T04:12:58.587Z,99.90
2019-03-11T04:15:03.265Z,99.90
2019-03-11T04:17:07.207Z,99.90
2019-03-11T04:19:11.111Z,99.90
2019-03-11T04:21:14.980Z,99.90
2019-03-11T04:23:18.905Z,99.90
2019-03-11T04:25:22.761Z,99.90
2019-03-11T04:27:26.612Z,99.90
2019-03-11T04:29:30.495Z,99.90
2019-03-11T04:31:35.871Z,99.90
2019-03-11T04:33:39.676Z,99.90
2019-03-11T04:35:43.535Z,99.90
2019-03-11T04:37:47.347Z,99.90
2019-03-11T04:39:51.190Z,99.90
2019-03-11T04:41:55.047Z,99.90
2019-03-11T04:43:58.823Z,99.90
2019-03-11T04:46:03.496Z,99.90
2019-03-11T04:48:07.342Z,99.90
2019-03-11T04:50:30.364Z,99.90
2019-03-11T04:52:35.496Z,99.90
2019-03-11T04:54:39.267Z,99.90
2019-03-11T04:56:43.021Z,99.90
2019-03-11T04:58:46.850Z,99.90
2019-03-11T05:00:50.639Z,99.90
2019-03-11T05:02:54.691Z,99.90
2019-03-11T05:04:58.495Z,99.90
2019-03-11T05:07:02.447Z,99.90
2019-03-11T05:09:06.729Z,99.90
2019-03-11T05:11:10.539Z,99.90
2019-03-11T05:13:14.319Z,99.90
2019-03-11T05:15:18.456Z,99.90
2019-03-11T05:17:22.393Z,99.90
2019-03-11T05:19:26.184Z,99.90
2019-03-11T05:21:30.008Z,99.90
2019-03-11T05:23:34.278Z,99.90
2019-03-11T05:25:38.292Z,99.90
2019-03-11T05:27:42.159Z,99.90
2019-03-11T05:29:45.960Z,99.90
2019-03-11T05:31:49.923Z,99.90
2019-03-11T05:33:54.110Z,99.90
2019-03-11T05:35:58.023Z,99.90
2019-03-11T05:38:01.917Z,99.90
2019-03-11T05:40:06.783Z,99.90
2019-03-11T05:42:10.856Z,99.90
2019-03-11T05:44:14.635Z,99.90
2019-03-11T05:46:18.396Z,99.90
2019-03-11T05:48:22.307Z,99.90
2019-03-11T05:50:26.275Z,99.90
2019-03-11T05:52:30.095Z,99.90
2019-03-11T05:54:34.393Z,99.90
2019-03-11T05:56:38.210Z,99.90
2019-03-11T05:58:42.004Z,99.90
2019-03-11T06:00:45.943Z,99.90
2019-03-11T06:02:49.799Z,99.90
2019-03-11T06:04:53.662Z,99.90
2019-03-11T06:06:57.474Z,99.90
2019-03-11T06:09:01.229Z,99.90
2019-03-11T06:11:05.695Z,99.90
2019-03-11T06:13:09.508Z,99.90
2019-03-11T06:15:13.669Z,99.90
2019-03-11T06:17:17.418Z,99.90
2019-03-11T06:19:21.351Z,99.90
2019-03-11T06:21:42.815Z,99.90
2019-03-11T06:23:46.671Z,99.90
2019-03-11T06:25:50.547Z,99.90
2019-03-11T06:27:54.479Z,99.90
2019-03-11T06:29:58.348Z,99.90
2019-03-11T06:32:02.174Z,99.90
2019-03-11T06:34:06.501Z,99.90
2019-03-11T06:36:11.061Z,99.90
2019-03-11T06:38:14.980Z,99.90
2019-03-11T06:40:18.906Z,99.90
2019-03-11T06:42:22.711Z,99.90
2019-03-11T06:44:26.683Z,99.90
2019-03-11T06:46:30.475Z,99.90
2019-03-11T06:48:35.012Z,99.90
2019-03-11T06:50:38.796Z,99.90
2019-03-11T06:52:42.686Z,99.90
2019-03-11T06:54:46.551Z,99.90
2019-03-11T06:56:50.316Z,99.90
2019-03-11T06:58:54.142Z,99.90
2019-03-11T07:00:57.991Z,99.90
2019-03-11T07:03:01.794Z,99.90
2019-03-11T07:05:18.740Z,99.90
2019-03-11T07:07:12.901Z,99.90
2019-03-11T07:09:17.051Z,99.90
2019-03-11T07:11:21.062Z,99.90
2019-03-11T07:13:24.912Z,99.90
2019-03-11T07:15:28.725Z,99.90
2019-03-11T07:17:32.834Z,99.90
2019-03-11T07:19:37.403Z,99.90
2019-03-11T07:21:41.279Z,99.90
2019-03-11T07:23:45.070Z,99.90
2019-03-11T07:25:48.863Z,99.90
2019-03-11T07:27:52.727Z,99.90
2019-03-11T07:29:56.564Z,99.90
2019-03-11T07:32:00.367Z,99.90
2019-03-11T07:34:04.997Z,99.90
2019-03-11T07:36:08.908Z,99.90
2019-03-11T07:38:13.132Z,99.90
2019-03-11T07:40:29.052Z,99.90
2019-03-11T07:42:24.299Z,99.90
2019-03-11T07:44:28.083Z,99.90
2019-03-11T07:46:32.023Z,99.90
2019-03-11T07:48:37.259Z,99.90
2019-03-11T07:50:41.031Z,99.90
2019-03-11T07:52:44.991Z,99.90
2019-03-11T07:54:48.823Z,99.90
2019-03-11T07:56:52.600Z,99.90
2019-03-11T07:58:56.864Z,99.90
2019-03-11T08:01:00.635Z,99.90
2019-03-11T08:03:05.756Z,99.90
2019-03-11T08:05:09.935Z,99.90
2019-03-11T08:07:13.856Z,99.90
2019-03-11T08:09:17.646Z,99.90
2019-03-11T08:11:21.475Z,99.90
2019-03-11T08:13:25.316Z,99.90
2019-03-11T08:15:29.106Z,99.90
2019-03-11T08:17:34.516Z,99.90
2019-03-11T08:19:38.873Z,99.90
2019-03-11T08:21:42.678Z,99.90
2019-03-11T08:23:46.514Z,99.90
2019-03-11T08:25:50.299Z,99.90
2019-03-11T08:27:54.267Z,99.90
2019-03-11T08:29:59.549Z,99.90
2019-03-11T08:32:03.835Z,99.90
2019-03-11T08:34:08.116Z,99.90
2019-03-11T08:36:11.915Z,99.90
2019-03-11T08:38:15.711Z,99.90
2019-03-11T08:40:20.112Z,99.90
2019-03-11T08:42:24.023Z,99.90
2019-03-11T08:44:27.761Z,99.90
2019-03-11T08:46:31.951Z,99.90
2019-03-11T08:48:36.597Z,99.90
2019-03-11T08:50:40.477Z,99.90
2019-03-11T08:52:44.523Z,99.90
2019-03-11T08:54:48.452Z,99.90
2019-03-11T08:59:09.950Z,99.90
2019-03-11T09:01:13.753Z,99.90
2019-03-11T09:03:17.652Z,99.90
2019-03-11T09:05:22.711Z,99.90
2019-03-11T09:07:26.809Z,99.90
2019-03-11T09:09:31.703Z,99.90
2019-03-11T09:11:36.813Z,99.90
2019-03-11T09:13:40.584Z,99.90
2019-03-11T09:15:44.555Z,99.90
2019-03-11T09:17:48.441Z,99.90
2019-03-11T09:19:52.604Z,99.90
2019-03-11T09:21:56.395Z,99.90
2019-03-11T09:24:00.304Z,99.90
2019-03-11T09:26:05.332Z,99.90
2019-03-11T09:28:09.239Z,99.90
2019-03-11T09:30:17.741Z,99.90
2019-03-11T09:32:21.547Z,99.90
2019-03-11T09:34:25.335Z,99.90
2019-03-11T09:36:29.267Z,99.90
2019-03-11T09:38:33.151Z,99.90
2019-03-11T09:40:37.859Z,99.90
2019-03-11T09:42:42.071Z,99.90
2019-03-11T09:44:45.891Z,99.90
2019-03-11T09:46:52.051Z,99.90
2019-03-11T09:48:56.055Z,99.90
2019-03-11T09:51:00.186Z,99.90
2019-03-11T09:53:04.229Z,99.90
2019-03-11T09:55:09.723Z,99.90
2019-03-11T09:57:50.691Z,99.90
2019-03-11T09:59:54.520Z,99.90
2019-03-11T10:01:58.425Z,99.90
2019-03-11T10:04:02.346Z,99.90
2019-03-11T10:06:06.675Z,99.90
2019-03-11T10:08:11.000Z,99.90
2019-03-11T10:10:16.323Z,99.90
2019-03-11T10:12:20.195Z,99.90
2019-03-11T10:14:23.997Z,99.90
2019-03-11T10:17:05.588Z,99.90
2019-03-11T10:19:09.739Z,99.90
2019-03-11T10:21:13.535Z,99.90
2019-03-11T10:23:17.354Z,99.90
2019-03-11T10:25:21.289Z,99.90
2019-03-11T10:27:31.189Z,99.90
2019-03-11T10:29:35.728Z,99.90
2019-03-11T10:31:39.943Z,99.90
2019-03-11T10:33:44.414Z,99.90
2019-03-11T10:36:01.793Z,99.90
2019-03-11T10:38:06.272Z,99.90
2019-03-11T10:40:12.827Z,99.90
2019-03-11T10:42:16.703Z,99.90
2019-03-11T10:44:20.735Z,99.90
2019-03-11T10:46:26.293Z,99.90
2019-03-11T10:48:37.086Z,99.90
2019-03-11T10:50:36.366Z,99.90
2019-03-11T10:52:40.263Z,99.90
2019-03-11T10:54:44.258Z,99.90
2019-03-11T10:56:48.211Z,99.90
2019-03-11T10:58:52.278Z,99.90
2019-03-11T11:00:56.095Z,99.90
2019-03-11T11:03:00.391Z,99.90
2019-03-11T11:05:06.043Z,99.90
2019-03-11T11:07:11.391Z,99.90
2019-03-11T11:09:15.670Z,99.90
2019-03-11T11:11:19.475Z,99.90
2019-03-11T11:13:23.795Z,99.90
2019-03-11T11:15:27.743Z,99.90
2019-03-11T11:17:31.525Z,99.90
2019-03-11T11:19:36.972Z,99.90
2019-03-11T11:21:40.796Z,99.90
2019-03-11T11:23:44.711Z,99.90
2019-03-11T11:25:48.588Z,99.90
2019-03-11T11:27:52.716Z,99.90
2019-03-11T11:29:56.500Z,99.90
2019-03-11T11:32:00.511Z,99.90
2019-03-11T11:34:04.561Z,99.90
2019-03-11T11:36:09.510Z,99.90
2019-03-11T11:38:13.595Z,99.90
2019-03-11T11:40:19.715Z,99.90
2019-03-11T11:42:24.027Z,99.90
2019-03-11T11:44:28.074Z,99.90
2019-03-11T11:46:32.451Z,99.90
2019-03-11T11:48:37.397Z,99.90
2019-03-11T11:50:41.215Z,99.90
2019-03-11T11:52:45.289Z,99.90
2019-03-11T11:54:49.036Z,99.90
2019-03-11T11:56:53.126Z,99.90
2019-03-11T11:58:56.899Z,99.90
2019-03-11T12:01:00.801Z,99.90
2019-03-11T12:03:04.906Z,99.90
2019-03-11T12:05:10.282Z,99.90
2019-03-11T12:07:14.144Z,99.90
2019-03-11T12:09:17.916Z,99.90
2019-03-11T12:11:21.708Z,99.90
2019-03-11T12:13:25.584Z,99.90
2019-03-11T12:15:30.011Z,99.90
2019-03-11T12:17:33.796Z,99.90
2019-03-11T12:19:38.179Z,99.90
2019-03-11T12:21:41.971Z,99.90
2019-03-11T12:23:46.824Z,99.90
2019-03-11T12:25:51.153Z,99.90
2019-03-11T12:27:57.909Z,99.90
2019-03-11T12:30:00.931Z,99.90
2019-03-11T12:32:04.988Z,99.90
2019-03-11T12:34:09.460Z,99.90
2019-03-11T12:36:13.311Z,99.90
2019-03-11T12:38:17.167Z,99.90
2019-03-11T12:40:21.531Z,99.90
2019-03-11T12:42:25.435Z,99.90
2019-03-11T12:44:29.280Z,99.90
2019-03-11T12:46:33.121Z,99.90
2019-03-11T12:48:37.873Z,99.90
2019-03-11T12:50:41.816Z,99.90
2019-03-11T12:52:45.732Z,99.90
2019-03-11T12:54:49.556Z,99.90
2019-03-11T12:56:53.416Z,99.90
2019-03-11T12:58:57.372Z,99.90
2019-03-11T13:01:03.437Z,99.90
2019-03-11T13:03:07.699Z,99.90
2019-03-11T13:05:12.039Z,99.90
2019-03-11T13:07:15.969Z,99.90
2019-03-11T13:09:19.838Z,99.90
2019-03-11T13:11:23.761Z,99.90
2019-03-11T13:13:27.552Z,99.90
2019-03-11T13:15:31.431Z,98.50
2019-03-11T13:17:35.431Z,92.80
2019-03-11T13:19:40.072Z,90.50
2019-03-11T13:21:45.315Z,88.20
2019-03-11T13:23:49.248Z,90.20
2019-03-11T13:25:53.035Z,94.90
2019-03-11T13:27:56.966Z,96.90
2019-03-11T13:30:00.828Z,99.00
2019-03-11T13:32:04.647Z,99.90
2019-03-11T13:34:09.175Z,99.90
2019-03-11T13:36:13.388Z,99.90
2019-03-11T13:38:17.249Z,99.90
2019-03-11T13:40:21.103Z,99.90
2019-03-11T13:42:24.991Z,99.90
2019-03-11T13:44:28.843Z,99.40
2019-03-11T13:46:32.703Z,99.80
2019-03-11T13:48:37.530Z,98.60
2019-03-11T13:50:42.134Z,98.00
2019-03-11T13:52:46.264Z,98.40
2019-03-11T13:54:50.123Z,99.20
2019-03-11T13:56:54.004Z,98.50
2019-03-11T13:58:57.862Z,98.10
2019-03-11T14:01:01.723Z,97.20
2019-03-11T14:03:05.575Z,97.90
2019-03-11T14:05:10.628Z,97.80
2019-03-11T14:07:14.514Z,97.20
2019-03-11T14:09:18.443Z,97.90
2019-03-11T14:11:22.239Z,98.00
2019-03-11T14:13:26.148Z,98.40
2019-03-11T14:15:30.072Z,99.00
2019-03-11T14:17:33.927Z,98.40
2019-03-11T14:19:38.211Z,98.60
2019-03-11T14:21:42.115Z,98.20
2019-03-11T14:23:45.979Z,97.50
2019-03-11T14:25:49.790Z,97.30
2019-03-11T14:27:53.675Z,96.90
2019-03-11T14:29:57.780Z,97.10
2019-03-11T14:32:01.877Z,96.00
2019-03-11T14:34:05.692Z,95.80
2019-03-11T14:36:10.494Z,95.80
2019-03-11T14:38:14.446Z,95.90
2019-03-11T14:40:18.339Z,95.90
2019-03-11T14:42:22.147Z,96.60
2019-03-11T14:44:25.950Z,95.70
2019-03-11T14:46:29.798Z,96.40
2019-03-11T14:48:33.728Z,97.10
2019-03-11T14:50:38.768Z,96.90
2019-03-11T14:52:43.334Z,96.10
2019-03-11T14:54:47.412Z,96.90
2019-03-11T14:56:51.250Z,97.20
2019-03-11T14:58:55.150Z,98.70
2019-03-11T15:00:59.207Z,97.80
2019-03-11T15:03:03.233Z,99.40
2019-03-11T15:05:07.436Z,98.50
2019-03-11T15:07:11.562Z,98.10
2019-03-11T15:09:15.472Z,97.10
2019-03-11T15:11:20.434Z,96.60
2019-03-11T15:13:24.556Z,96.90
2019-03-11T15:15:28.471Z,97.10
2019-03-11T15:17:32.464Z,97.20
2019-03-11T15:19:36.315Z,96.60
2019-03-11T15:21:41.354Z,96.90
2019-03-11T15:23:45.630Z,96.80
2019-03-11T15:25:49.833Z,96.60
2019-03-11T15:27:53.782Z,96.90
2019-03-11T15:29:57.695Z,96.20
2019-03-11T15:32:01.576Z,95.80
2019-03-11T15:34:05.494Z,96.70
2019-03-11T15:36:10.011Z,96.80
2019-03-11T15:38:13.839Z,96.10
2019-03-11T15:40:26.724Z,95.80
2019-03-11T15:42:30.642Z,96.80
2019-03-11T15:44:34.503Z,97.30
2019-03-11T15:46:39.756Z,98.00
2019-03-11T15:49:02.896Z,99.80
2019-03-11T15:51:07.071Z,99.90
2019-03-11T15:53:11.975Z,98.00
2019-03-11T15:55:16.366Z,97.20
2019-03-11T15:57:20.246Z,94.90
2019-03-11T15:59:24.187Z,93.20
2019-03-11T16:01:28.039Z,92.10
2019-03-11T16:03:36.176Z,89.70
2019-03-11T16:05:37.819Z,88.40
2019-03-11T16:07:42.174Z,88.90
2019-03-11T16:09:45.963Z,88.70
2019-03-11T16:11:49.843Z,91.20
2019-03-11T16:13:53.646Z,91.60
2019-03-11T16:15:57.483Z,91.50
2019-03-11T16:18:01.405Z,92.30
2019-03-11T16:20:06.087Z,92.80
2019-03-11T16:22:11.244Z,92.40
2019-03-11T16:24:17.031Z,91.30
2019-03-11T16:26:20.847Z,91.20
2019-03-11T16:28:24.771Z,90.60
2019-03-11T16:30:28.694Z,91.20
2019-03-11T16:32:36.943Z,92.50
2019-03-11T16:34:38.599Z,92.70
2019-03-11T16:36:42.816Z,93.90
2019-03-11T16:38:46.733Z,92.50
2019-03-11T16:40:50.657Z,93.60
2019-03-11T16:42:54.677Z,93.80
2019-03-11T16:44:58.515Z,93.40
2019-03-11T16:47:02.407Z,92.80
2019-03-11T16:49:06.427Z,92.50
2019-03-11T16:51:11.536Z,92.10
2019-03-11T16:53:15.787Z,90.80
2019-03-11T16:55:21.811Z,91.00
2019-03-11T16:57:25.652Z,91.40
2019-03-11T16:59:29.443Z,91.90
2019-03-11T17:01:33.319Z,93.50
2019-03-11T17:03:37.163Z,93.60
2019-03-11T17:05:42.239Z,94.10
2019-03-11T17:07:46.376Z,95.40
2019-03-11T17:09:50.163Z,96.10
2019-03-11T17:11:53.963Z,96.50
2019-03-11T17:13:57.801Z,97.00
2019-03-11T17:16:01.647Z,97.60
2019-03-11T17:18:05.948Z,97.70
2019-03-11T17:20:12.070Z,97.40
2019-03-11T17:22:16.110Z,97.80
2019-03-11T17:24:19.891Z,97.80
2019-03-11T17:26:23.793Z,98.20
2019-03-11T17:28:27.739Z,98.70
2019-03-11T17:30:31.604Z,98.90
2019-03-11T17:32:35.698Z,99.00
2019-03-11T17:34:40.269Z,99.40
2019-03-11T17:36:44.183Z,99.40
2019-03-11T17:38:48.331Z,99.70
2019-03-11T17:40:52.173Z,99.80
2019-03-11T17:42:56.181Z,99.90
2019-03-11T17:45:00.457Z,99.90
2019-03-11T17:47:04.730Z,99.90
2019-03-11T17:49:09.469Z,99.90
2019-03-11T17:51:13.739Z,99.90
2019-03-11T17:53:20.212Z,99.90
2019-03-11T17:55:24.427Z,99.90
2019-03-11T17:57:28.557Z,99.90
2019-03-11T17:59:32.627Z,99.90
2019-03-11T18:01:36.576Z,99.90
2019-03-11T18:03:42.015Z,99.90
2019-03-11T18:05:46.139Z,99.90
2019-03-11T18:07:50.194Z,99.90
2019-03-11T18:09:54.084Z,99.90
2019-03-11T18:11:58.136Z,99.90
2019-03-11T18:14:01.883Z,99.90
2019-03-11T18:16:05.883Z,99.90
2019-03-11T18:18:11.162Z,99.90
2019-03-11T18:20:15.158Z,99.90
2019-03-11T18:22:38.461Z,99.90
2019-03-11T18:24:43.047Z,99.90
2019-03-11T18:26:46.989Z,99.90
2019-03-11T18:28:50.785Z,99.90
2019-03-11T18:30:54.604Z,99.90
2019-03-11T18:32:58.625Z,99.90
2019-03-11T18:35:02.600Z,99.90
2019-03-11T18:37:06.566Z,99.90
2019-03-11T18:39:11.693Z,99.90
2019-03-11T18:41:15.627Z,99.90
2019-03-11T18:43:21.070Z,99.90
2019-03-11T18:45:25.353Z,99.90
2019-03-11T18:47:29.265Z,99.90
2019-03-11T18:49:33.126Z,99.90
2019-03-11T18:51:36.946Z,99.90
2019-03-11T18:53:41.568Z,99.90
2019-03-11T18:55:45.471Z,99.90
2019-03-11T18:57:49.863Z,99.90
2019-03-11T18:59:53.837Z,99.90
2019-03-11T19:01:57.948Z,99.90
2019-03-11T19:04:01.955Z,99.90
2019-03-11T19:06:07.098Z,99.90
2019-03-11T19:08:11.937Z,99.90
2019-03-11T19:10:16.295Z,99.90
2019-03-11T19:12:20.214Z,99.90
2019-03-11T19:14:24.695Z,99.90
2019-03-11T19:16:28.572Z,99.90
2019-03-11T19:18:32.511Z,99.90
2019-03-11T19:20:36.666Z,99.90
2019-03-11T19:22:41.680Z,99.90
2019-03-11T19:24:45.728Z,99.90
2019-03-11T19:26:49.616Z,99.90
2019-03-11T19:28:53.453Z,99.90
2019-03-11T19:30:57.274Z,99.90
2019-03-11T19:33:01.078Z,99.90
2019-03-11T19:35:05.741Z,99.90
2019-03-11T19:37:10.175Z,99.90
2019-03-11T19:39:18.218Z,99.90
2019-03-11T19:41:22.291Z,99.90
2019-03-11T19:43:26.118Z,99.90
2019-03-11T19:45:30.209Z,99.90
2019-03-11T19:47:34.160Z,99.90
2019-03-11T19:49:38.043Z,99.90
2019-03-11T19:51:42.952Z,99.90
2019-03-11T19:53:47.388Z,99.90
2019-03-11T19:55:51.606Z,99.90
2019-03-11T19:57:55.504Z,99.90
2019-03-11T20:00:00.130Z,99.90
2019-03-11T20:02:04.622Z,99.90
2019-03-11T20:04:09.056Z,99.90
2019-03-11T20:06:14.053Z,99.90
2019-03-11T20:08:18.065Z,99.90
2019-03-11T20:10:22.065Z,99.90
2019-03-11T20:12:26.055Z,99.90
2019-03-11T20:14:30.442Z,99.90
2019-03-11T20:16:34.467Z,99.90
2019-03-11T20:18:38.420Z,99.90
2019-03-11T20:20:43.167Z,99.90
2019-03-11T20:22:47.269Z,99.90
2019-03-11T20:24:51.195Z,99.90
2019-03-11T20:26:55.227Z,99.90
2019-03-11T20:29:07.553Z,99.90
2019-03-11T20:31:07.182Z,99.90
2019-03-11T20:33:19.434Z,99.90
2019-03-11T20:35:23.542Z,99.90
2019-03-11T20:37:27.526Z,99.90
2019-03-11T20:39:31.567Z,99.90
2019-03-11T20:41:35.386Z,99.90
2019-03-11T20:43:39.239Z,99.90
2019-03-11T20:45:43.490Z,99.90
2019-03-11T20:47:47.602Z,99.90
2019-03-11T20:49:51.604Z,99.90
2019-03-11T20:52:10.443Z,99.90
2019-03-11T20:54:15.404Z,99.90
2019-03-11T20:56:31.190Z,99.90
2019-03-11T20:58:35.166Z,99.90
2019-03-11T21:00:39.641Z,99.90
2019-03-11T21:02:44.284Z,99.90
2019-03-11T21:04:48.114Z,99.90
2019-03-11T21:06:52.140Z,99.90
2019-03-11T21:08:55.999Z,99.90
2019-03-11T21:10:59.835Z,99.90
2019-03-11T21:13:05.642Z,99.90
2019-03-11T21:15:11.740Z,99.90
2019-03-11T21:17:25.302Z,99.90
2019-03-11T21:19:21.404Z,99.90
2019-03-11T21:21:25.193Z,99.90
2019-03-11T21:23:29.003Z,99.90
2019-03-11T21:25:32.984Z,99.90
2019-03-11T21:27:37.026Z,99.90
2019-03-11T21:29:41.740Z,99.90
2019-03-11T21:31:45.683Z,99.90
2019-03-11T21:33:58.308Z,99.90
2019-03-11T21:35:55.087Z,99.90
2019-03-11T21:37:58.931Z,99.90
2019-03-11T21:40:02.753Z,99.90
2019-03-11T21:42:06.778Z,99.90
2019-03-11T21:44:11.189Z,99.90
2019-03-11T21:46:15.231Z,99.90
2019-03-11T21:48:19.059Z,99.90
2019-03-11T21:50:23.084Z,99.90
2019-03-11T21:52:26.915Z,99.90
2019-03-11T21:54:30.856Z,99.90
2019-03-11T21:56:34.695Z,99.90
2019-03-11T21:58:38.558Z,99.90
2019-03-11T22:00:43.115Z,99.90
2019-03-11T22:02:48.277Z,99.90
2019-03-11T22:04:52.063Z,99.90
2019-03-11T22:06:55.934Z,99.90
2019-03-11T22:08:59.760Z,99.90
2019-03-11T22:11:03.648Z,99.90
2019-03-11T22:13:07.511Z,99.90
2019-03-11T22:15:13.135Z,99.90
2019-03-11T22:17:16.950Z,99.90
2019-03-11T22:19:20.797Z,99.90
2019-03-11T22:21:24.600Z,99.90
2019-03-11T22:23:28.510Z,99.90
2019-03-11T22:25:32.331Z,99.90
2019-03-11T22:27:36.265Z,99.90
2019-03-11T22:29:40.209Z,99.90
2019-03-11T22:31:45.041Z,99.90
2019-03-11T22:33:48.829Z,99.90
2019-03-11T22:35:52.624Z,99.90
2019-03-11T22:37:56.425Z,99.90
2019-03-11T22:40:00.242Z,99.90
2019-03-11T22:42:04.415Z,99.90
2019-03-11T22:44:08.303Z,99.90
2019-03-11T22:46:12.739Z,99.90
2019-03-11T22:48:16.592Z,99.90
2019-03-11T22:50:21.251Z,99.90
2019-03-11T22:52:25.028Z,99.90
2019-03-11T22:54:28.884Z,99.90
2019-03-11T22:56:32.690Z,99.90
2019-03-11T22:58:36.470Z,99.90
2019-03-11T23:00:54.795Z,99.90
2019-03-11T23:02:58.608Z,99.90
2019-03-11T23:05:03.242Z,99.90
2019-03-11T23:07:07.125Z,99.90
2019-03-11T23:09:11.707Z,99.90
2019-03-11T23:11:15.989Z,99.90
2019-03-11T23:13:19.843Z,99.90
2019-03-11T23:15:24.119Z,99.90
2019-03-11T23:17:27.932Z,99.90
2019-03-11T23:19:31.688Z,99.90
2019-03-11T23:21:35.554Z,99.90
2019-03-11T23:23:39.419Z,99.90
2019-03-11T23:25:44.159Z,99.90
2019-03-11T23:27:48.033Z,99.90
2019-03-11T23:29:51.933Z,99.90
2019-03-11T23:31:55.723Z,99.90
2019-03-11T23:34:18.723Z,99.90
2019-03-11T23:36:22.587Z,99.90
2019-03-11T23:38:26.533Z,99.90
2019-03-11T23:40:30.400Z,99.90
2019-03-11T23:42:34.259Z,99.90
2019-03-11T23:44:38.035Z,99.90
2019-03-11T23:46:42.235Z,99.90
2019-03-11T23:48:46.123Z,99.90
2019-03-11T23:50:49.904Z,99.90
2019-03-11T23:52:54.031Z,99.90
2019-03-11T23:54:57.810Z,99.90
2019-03-11T23:57:01.604Z,99.90
2019-03-11T23:59:05.480Z,99.90
